Flight Track Log - Related Links

Times and Time Zones

All times are in EDT time to prevent confusion due to time zone crossing. See the LXJ541 flight status page for this flight to view local times or setup timezone preferences in your user account.

Time Position Orientation Groundspeed Altitude Reporting Facility
EDT Latitude Longitude Course Direction KTS MPH feet Rate Location/Type
Sat 10:51:32 AM 33.6536 -117.8825 195° South 175 201 1,300  Level Los Angeles Center
Sat 10:52:34 AM 33.5936 -117.9019 195° South 265 305 4,600 3,512 Climbing Los Angeles Center
Sat 10:53:35 AM 33.5189 -117.8669 159° South 271 312 8,500 3,366 Climbing Los Angeles Center
Sat 10:54:37 AM 33.4694 -117.7864 126° Southeast 297 342 11,500 2,683 Climbing Los Angeles Center
Sat 10:55:38 AM 33.4103 -117.6903 126° Southeast 348 400 14,000 2,439 Climbing Los Angeles Center
Sat 10:56:40 AM 33.3458 -117.5864 127° Southeast 383 441 16,500 2,439 Climbing Los Angeles Center
Sat 10:57:41 AM 33.3022 -117.4619 113° Southeast 420 483 19,000 2,390 Climbing Los Angeles Center
Sat 10:58:43 AM 33.2764 -117.3231 103° East 429 494 21,400 2,049 Climbing Los Angeles Center
Sat 10:59:44 AM 33.2467 -117.1603 102° East 447 514 23,200 1,951 Climbing Los Angeles Center
Sat 11:00:46 AM 33.1967 -117.0117 112° Southeast 477 549 25,400 2,146 Climbing Los Angeles Center
Sat 11:01:47 AM 33.1394 -116.8681 115° Southeast 480 552 27,600 2,146 Climbing Los Angeles Center
Sat 11:02:49 AM 33.0789 -116.7250 117° Southeast 480 552 29,800 2,081 Climbing Los Angeles Center
Sat 11:03:51 AM 33.0072 -116.5886 122° Southeast 483 556 31,900 1,951 Climbing Los Angeles Center
Sat 11:04:52 AM 32.9317 -116.4372 121° Southeast 495 570 33,800 1,659 Climbing Los Angeles Center
Sat 11:05:54 AM 32.8772 -116.2842 113° Southeast 502 578 35,300 1,171 Climbing Los Angeles Center
Sat 11:06:55 AM 32.8189 -116.1217 113° Southeast 521 600 36,200 878 Climbing Los Angeles Center
Sat 11:07:57 AM 32.7606 -115.9544 112° Southeast 543 625 37,100 871 Climbing Los Angeles Center
Sat 11:08:59 AM 32.7003 -115.7825 113° Southeast 562 647 38,000 871 Climbing Los Angeles Center
Sat 11:10:00 AM 32.6140 -115.6494 124° Southeast  Level FlightAware Approximate
Sat 11:17:00 AM 32.0765 -114.6895 122° Southeast  Level FlightAware Approximate
Sat 11:18:00 AM 32.0019 -114.5511 122° Southeast  Level FlightAware Approximate
Sat 11:19:00 AM 31.9189 -114.4199 128° Southeast  Level FlightAware Approximate
Sat 11:20:00 AM 31.8344 -114.2900 125° Southeast  Level FlightAware Approximate
Sat 11:21:00 AM 31.7554 -114.1555 125° Southeast  Level FlightAware Approximate
Sat 11:22:00 AM 31.6763 -114.0212 125° Southeast  Level FlightAware Approximate
Sat 11:23:00 AM 31.5970 -113.8871 125° Southeast  Level FlightAware Approximate
Sat 11:24:00 AM 31.5176 -113.7532 125° Southeast  Level FlightAware Approximate
Sat 11:25:00 AM 31.4381 -113.6196 125° Southeast  Level FlightAware Approximate
Sat 11:26:00 AM 31.3615 -113.4842 111° Southeast  Level FlightAware Approximate
Sat 11:27:00 AM 31.3112 -113.3325 111° Southeast  Level FlightAware Approximate
Sat 11:28:00 AM 31.2607 -113.1810 111° Southeast  Level FlightAware Approximate
Sat 11:29:00 AM 31.2101 -113.0296 111° Southeast  Level FlightAware Approximate
Sat 11:30:00 AM 31.1577 -112.8791 113° Southeast  Level FlightAware Approximate
Sat 11:31:00 AM 31.1035 -112.7295 113° Southeast  Level FlightAware Approximate
Sat 11:32:00 AM 31.0492 -112.5802 113° Southeast  Level FlightAware Approximate
Sat 11:33:00 AM 30.9947 -112.4310 113° Southeast  Level FlightAware Approximate
Sat 11:34:00 AM 30.9353 -112.2845 116° Southeast  Level FlightAware Approximate
Sat 11:35:00 AM 30.8767 -112.1376 113° Southeast  Level FlightAware Approximate
Sat 11:36:00 AM 30.8212 -111.9892 114° Southeast  Level FlightAware Approximate
Sat 11:37:00 AM 30.7654 -111.8410 114° Southeast  Level FlightAware Approximate
Sat 11:38:00 AM 30.7113 -111.6920 113° Southeast  Level FlightAware Approximate
Sat 11:39:00 AM 30.6577 -111.5429 113° Southeast  Level FlightAware Approximate
Sat 11:40:00 AM 30.6039 -111.3940 113° Southeast  Level FlightAware Approximate
Sat 11:41:00 AM 30.5439 -111.2483 116° Southeast  Level FlightAware Approximate
Sat 11:42:00 AM 30.4834 -111.1031 116° Southeast  Level FlightAware Approximate
Sat 11:43:00 AM 30.4240 -110.9574 113° Southeast  Level FlightAware Approximate
Sat 11:44:00 AM 30.3706 -110.8086 113° Southeast  Level FlightAware Approximate
Sat 11:45:00 AM 30.3170 -110.6600 113° Southeast  Level FlightAware Approximate
Sat 11:46:00 AM 30.2633 -110.5115 113° Southeast  Level FlightAware Approximate
Sat 11:47:00 AM 30.2091 -110.3634 114° Southeast  Level FlightAware Approximate
Sat 11:48:00 AM 30.1532 -110.2162 114° Southeast  Level FlightAware Approximate
Sat 11:49:00 AM 30.0971 -110.0691 114° Southeast  Level FlightAware Approximate
Sat 11:50:00 AM 30.0409 -109.9223 114° Southeast  Level FlightAware Approximate
Sat 11:51:00 AM 29.9845 -109.7756 114° Southeast  Level FlightAware Approximate
Sat 11:52:00 AM 29.9279 -109.6290 114° Southeast  Level FlightAware Approximate
Sat 11:53:00 AM 29.8692 -109.4837 115° Southeast  Level FlightAware Approximate
Sat 11:54:00 AM 29.8099 -109.3388 115° Southeast  Level FlightAware Approximate
Sat 11:55:00 AM 29.7506 -109.1939 115° Southeast  Level FlightAware Approximate
Sat 11:56:00 AM 29.6915 -109.0491 115° Southeast  Level FlightAware Approximate
Sat 11:57:00 AM 29.6322 -108.9044 115° Southeast  Level FlightAware Approximate
Sat 11:58:00 AM 29.5731 -108.7597 115° Southeast  Level FlightAware Approximate
Sat 11:59:00 AM 29.5139 -108.6152 115° Southeast  Level FlightAware Approximate
Sat 12:00:00 PM 29.4550 -108.4706 114° Southeast  Level FlightAware Approximate
Sat 12:01:00 PM 29.3975 -108.3253 114° Southeast  Level FlightAware Approximate
Sat 12:02:00 PM 29.3398 -108.1802 114° Southeast  Level FlightAware Approximate
Sat 12:03:00 PM 29.2819 -108.0353 115° Southeast  Level FlightAware Approximate
Sat 12:04:00 PM 29.2239 -107.8905 115° Southeast  Level FlightAware Approximate
Sat 12:05:00 PM 29.1657 -107.7459 115° Southeast  Level FlightAware Approximate
Sat 12:06:00 PM 29.1073 -107.6015 115° Southeast  Level FlightAware Approximate
Sat 12:07:00 PM 29.0482 -107.4575 115° Southeast  Level FlightAware Approximate
Sat 12:08:00 PM 28.9888 -107.3138 115° Southeast  Level FlightAware Approximate
Sat 12:09:00 PM 28.9293 -107.1703 115° Southeast  Level FlightAware Approximate
Sat 12:10:00 PM 28.8697 -107.0269 115° Southeast  Level FlightAware Approximate
Sat 12:11:00 PM 28.8099 -106.8836 115° Southeast  Level FlightAware Approximate
Sat 12:12:00 PM 28.7506 -106.7402 115° Southeast  Level FlightAware Approximate
Sat 12:13:00 PM 28.6911 -106.5969 115° Southeast  Level FlightAware Approximate
Sat 12:14:00 PM 28.6315 -106.4539 115° Southeast  Level FlightAware Approximate
Sat 12:15:00 PM 28.5717 -106.3109 115° Southeast  Level FlightAware Approximate
Sat 12:16:00 PM 28.5118 -106.1682 116° Southeast  Level FlightAware Approximate
Sat 12:17:00 PM 28.4518 -106.0256 116° Southeast  Level FlightAware Approximate
Sat 12:18:00 PM 28.3916 -105.8831 116° Southeast  Level FlightAware Approximate
Sat 12:19:00 PM 28.3312 -105.7408 116° Southeast  Level FlightAware Approximate
Sat 12:20:00 PM 28.2707 -105.5987 116° Southeast  Level FlightAware Approximate
Sat 12:21:00 PM 28.2100 -105.4568 116° Southeast  Level FlightAware Approximate
Sat 12:22:00 PM 28.1630 -105.3085 109° East  Level FlightAware Approximate
Sat 12:23:00 PM 28.1185 -105.1592 109° East  Level FlightAware Approximate
Sat 12:24:00 PM 28.0739 -105.0100 109° East  Level FlightAware Approximate
Sat 12:25:00 PM 28.0291 -104.8609 109° East  Level FlightAware Approximate
Sat 12:26:00 PM 27.9842 -104.7119 109° East  Level FlightAware Approximate
Sat 12:27:00 PM 27.9391 -104.5631 109° East  Level FlightAware Approximate
Sat 12:28:00 PM 27.8938 -104.4144 109° East  Level FlightAware Approximate
Sat 12:29:00 PM 27.8484 -104.2657 109° East  Level FlightAware Approximate
Sat 12:30:00 PM 27.8028 -104.1173 109° East  Level FlightAware Approximate
Sat 12:31:00 PM 27.7571 -103.9689 109° East  Level FlightAware Approximate
Sat 12:32:00 PM 27.7114 -103.8206 109° East  Level FlightAware Approximate
Sat 12:33:00 PM 27.6655 -103.6724 109° East  Level FlightAware Approximate
Sat 12:34:00 PM 27.6195 -103.5244 109° East  Level FlightAware Approximate
Sat 12:35:00 PM 27.5733 -103.3765 109° East  Level FlightAware Approximate
Sat 12:36:00 PM 27.5270 -103.2287 109° East  Level FlightAware Approximate
Sat 12:37:00 PM 27.4805 -103.0810 110° East  Level FlightAware Approximate
Sat 12:38:00 PM 27.4338 -102.9334 110° East  Level FlightAware Approximate
Sat 12:39:00 PM 27.3870 -102.7860 110° East  Level FlightAware Approximate
Sat 12:40:00 PM 27.3401 -102.6387 110° East  Level FlightAware Approximate
Sat 12:41:00 PM 27.2929 -102.4915 110° East  Level FlightAware Approximate
Sat 12:42:00 PM 27.2457 -102.3445 110° East  Level FlightAware Approximate
Sat 12:43:00 PM 27.1983 -102.1975 110° East  Level FlightAware Approximate
Sat 12:44:00 PM 27.1458 -102.0531 117° Southeast  Level FlightAware Approximate
Sat 12:45:00 PM 27.0881 -101.9113 109° East  Level FlightAware Approximate
Sat 12:46:00 PM 27.0425 -101.7639 109° East  Level FlightAware Approximate
Sat 12:47:00 PM 26.9967 -101.6166 109° East  Level FlightAware Approximate
Sat 12:48:00 PM 26.9508 -101.4694 109° East  Level FlightAware Approximate
Sat 12:49:00 PM 26.9028 -101.3231 110° East  Level FlightAware Approximate
Sat 12:50:00 PM 26.8547 -101.1769 110° East  Level FlightAware Approximate
Sat 12:51:00 PM 26.8063 -101.0309 110° East  Level FlightAware Approximate
Sat 12:52:00 PM 26.7578 -100.8849 110° East  Level FlightAware Approximate
Sat 12:53:00 PM 26.7092 -100.7392 110° East  Level FlightAware Approximate
Sat 12:54:00 PM 26.6604 -100.5935 111° Southeast  Level FlightAware Approximate
Sat 12:55:00 PM 26.6115 -100.4479 111° Southeast  Level FlightAware Approximate
Sat 12:56:00 PM 26.5624 -100.3025 111° Southeast  Level FlightAware Approximate
Sat 12:57:00 PM 26.5182 -100.1554 105° East  Level FlightAware Approximate
Sat 12:58:00 PM 26.4812 -100.0057 105° East  Level FlightAware Approximate
Sat 12:59:00 PM 26.4440 -99.8561 105° East  Level FlightAware Approximate
Sat 01:00:00 PM 26.4067 -99.7066 106° East  Level FlightAware Approximate
Sat 01:01:00 PM 26.3692 -99.5572 106° East  Level FlightAware Approximate
Sat 01:02:00 PM 26.3315 -99.4079 106° East  Level FlightAware Approximate
Sat 01:03:00 PM 26.2816 -99.2766 106° East  Level FlightAware Approximate
Sat 01:04:00 PM 26.2426 -99.1278 106° East  Level FlightAware Approximate
Sat 01:05:00 PM 26.2035 -98.9791 106° East  Level FlightAware Approximate
Sat 01:06:00 PM 26.1642 -98.8305 106° East  Level FlightAware Approximate
Sat 01:07:00 PM 26.1248 -98.6821 106° East  Level FlightAware Approximate
Sat 01:08:00 PM 26.0852 -98.5337 107° East  Level FlightAware Approximate
Sat 01:09:00 PM 26.0454 -98.3854 107° East  Level FlightAware Approximate
Sat 01:10:00 PM 26.0056 -98.2373 107° East  Level FlightAware Approximate
Sat 01:11:00 PM 25.9587 -98.0917 110° East  Level FlightAware Approximate
Sat 01:12:00 PM 25.9105 -97.9467 110° East  Level FlightAware Approximate
Sat 01:13:00 PM 25.8622 -97.8018 110° East  Level FlightAware Approximate
Sat 01:14:00 PM 25.8138 -97.6571 110° East  Level FlightAware Approximate
Sat 01:15:00 PM 25.7645 -97.5128 122° Southeast  Level FlightAware Approximate
Sat 01:16:00 PM 25.6913 -97.3817 122° Southeast  Level FlightAware Approximate
Sat 01:17:00 PM 25.6180 -97.2507 122° Southeast  Level FlightAware Approximate
Sat 01:18:00 PM 25.5445 -97.1199 122° Southeast  Level FlightAware Approximate
Sat 01:19:00 PM 25.4735 -96.9875 120° Southeast  Level FlightAware Approximate
Sat 01:20:00 PM 25.4028 -96.8550 121° Southeast  Level FlightAware Approximate
Sat 01:21:00 PM 25.3320 -96.7227 121° Southeast  Level FlightAware Approximate
Sat 01:22:00 PM 25.2610 -96.5905 121° Southeast  Level FlightAware Approximate
Sat 01:23:00 PM 25.1900 -96.4584 121° Southeast  Level FlightAware Approximate
Sat 01:24:00 PM 25.1188 -96.3265 121° Southeast  Level FlightAware Approximate
Sat 01:25:00 PM 25.0475 -96.1948 121° Southeast  Level FlightAware Approximate
Sat 01:26:00 PM 24.9761 -96.0632 121° Southeast  Level FlightAware Approximate
Sat 01:27:00 PM 24.9046 -95.9318 121° Southeast  Level FlightAware Approximate
Sat 01:28:00 PM 24.8329 -95.8005 121° Southeast  Level FlightAware Approximate
Sat 01:29:00 PM 24.7612 -95.6693 121° Southeast  Level FlightAware Approximate
Sat 01:30:00 PM 24.6893 -95.5384 121° Southeast  Level FlightAware Approximate
Sat 01:31:00 PM 24.6173 -95.4075 121° Southeast  Level FlightAware Approximate
Sat 01:32:00 PM 24.5452 -95.2769 121° Southeast  Level FlightAware Approximate
Sat 01:33:00 PM 24.4730 -95.1463 121° Southeast  Level FlightAware Approximate
Sat 01:34:00 PM 24.4007 -95.0160 121° Southeast  Level FlightAware Approximate
Sat 01:35:00 PM 24.3283 -94.8857 121° Southeast  Level FlightAware Approximate
Sat 01:36:00 PM 24.2557 -94.7556 121° Southeast  Level FlightAware Approximate
Sat 01:37:00 PM 24.1831 -94.6257 121° Southeast  Level FlightAware Approximate
Sat 01:38:00 PM 24.1206 -94.4901 113° Southeast  Level FlightAware Approximate
Sat 01:39:00 PM 24.0667 -94.3498 113° Southeast  Level FlightAware Approximate
Sat 01:40:00 PM 24.0126 -94.2096 113° Southeast  Level FlightAware Approximate
Sat 01:41:00 PM 23.9584 -94.0695 113° Southeast  Level FlightAware Approximate
Sat 01:42:00 PM 23.9041 -93.9295 113° Southeast  Level FlightAware Approximate
Sat 01:43:00 PM 23.8501 -93.7895 112° Southeast  Level FlightAware Approximate
Sat 01:44:00 PM 23.7969 -93.6491 112° Southeast  Level FlightAware Approximate
Sat 01:45:00 PM 23.7436 -93.5088 113° Southeast  Level FlightAware Approximate
Sat 01:46:00 PM 23.6902 -93.3687 113° Southeast  Level FlightAware Approximate
Sat 01:47:00 PM 23.6366 -93.2286 113° Southeast  Level FlightAware Approximate
Sat 01:48:00 PM 23.5830 -93.0887 113° Southeast  Level FlightAware Approximate
Sat 01:49:00 PM 23.5292 -92.9489 113° Southeast  Level FlightAware Approximate
Sat 01:50:00 PM 23.4752 -92.8092 113° Southeast  Level FlightAware Approximate
Sat 01:51:00 PM 23.4212 -92.6696 113° Southeast  Level FlightAware Approximate
Sat 01:52:00 PM 23.3670 -92.5302 113° Southeast  Level FlightAware Approximate
Sat 01:53:00 PM 23.3127 -92.3908 113° Southeast  Level FlightAware Approximate
Sat 01:54:00 PM 23.2583 -92.2516 113° Southeast  Level FlightAware Approximate
Sat 01:55:00 PM 23.2037 -92.1125 113° Southeast  Level FlightAware Approximate
Sat 01:56:00 PM 23.1490 -91.9735 113° Southeast  Level FlightAware Approximate
Sat 01:57:00 PM 23.0943 -91.8346 113° Southeast  Level FlightAware Approximate
Sat 01:58:00 PM 23.0394 -91.6958 113° Southeast  Level FlightAware Approximate
Sat 01:59:00 PM 22.9843 -91.5571 113° Southeast  Level FlightAware Approximate
Sat 02:00:00 PM 22.9292 -91.4186 113° Southeast  Level FlightAware Approximate
Sat 02:01:00 PM 22.8739 -91.2801 113° Southeast  Level FlightAware Approximate
Sat 02:02:00 PM 22.8185 -91.1418 113° Southeast  Level FlightAware Approximate
Sat 02:03:00 PM 22.7630 -91.0036 114° Southeast  Level FlightAware Approximate
Sat 02:04:00 PM 22.7074 -90.8655 114° Southeast  Level FlightAware Approximate
Sat 02:05:00 PM 22.6516 -90.7275 114° Southeast  Level FlightAware Approximate
Sat 02:06:00 PM 22.5957 -90.5896 114° Southeast  Level FlightAware Approximate
Sat 02:07:00 PM 22.5397 -90.4518 114° Southeast  Level FlightAware Approximate
Sat 02:08:00 PM 22.4837 -90.3142 114° Southeast  Level FlightAware Approximate
Sat 02:09:00 PM 22.4274 -90.1766 114° Southeast  Level FlightAware Approximate
Sat 02:10:00 PM 22.3711 -90.0392 114° Southeast  Level FlightAware Approximate
Sat 02:11:00 PM 22.3146 -89.9019 114° Southeast  Level FlightAware Approximate
Sat 02:12:00 PM 22.2581 -89.7647 114° Southeast  Level FlightAware Approximate
Sat 02:13:00 PM 22.2014 -89.6276 114° Southeast  Level FlightAware Approximate
Sat 02:14:00 PM 22.1446 -89.4906 114° Southeast  Level FlightAware Approximate
Sat 02:15:00 PM 22.0857 -89.3547 118° Southeast  Level FlightAware Approximate
Sat 02:16:00 PM 22.0284 -89.2186 110° East  Level FlightAware Approximate
Sat 02:17:00 PM 21.9708 -89.0823 116° Southeast  Level FlightAware Approximate
Sat 02:18:00 PM 21.9120 -88.9466 113° Southeast  Level FlightAware Approximate
Sat 02:19:00 PM 21.8570 -88.8090 113° Southeast  Level FlightAware Approximate
Sat 02:20:00 PM 21.8020 -88.6715 113° Southeast  Level FlightAware Approximate
Sat 02:21:00 PM 21.7365 -88.5396 118° Southeast  Level FlightAware Approximate
Sat 02:22:00 PM 21.6782 -88.4039 113° Southeast  Level FlightAware Approximate
Sat 02:23:00 PM 21.6233 -88.2665 113° Southeast  Level FlightAware Approximate
Sat 02:24:00 PM 21.5684 -88.1292 113° Southeast  Level FlightAware Approximate
Sat 02:25:00 PM 21.5109 -87.9931 115° Southeast  Level FlightAware Approximate
Sat 02:26:00 PM 21.4521 -87.8578 115° Southeast  Level FlightAware Approximate
Sat 02:27:00 PM 21.3932 -87.7226 115° Southeast  Level FlightAware Approximate
Sat 02:28:00 PM 21.3353 -87.5872 118° Southeast  Level FlightAware Approximate
Sat 02:29:00 PM 21.2715 -87.4548 114° Southeast  Level FlightAware Approximate
Sat 02:30:00 PM 21.2147 -87.3186 114° Southeast  Level FlightAware Approximate
Sat 02:31:00 PM 21.1514 -87.1861 118° Southeast  Level FlightAware Approximate
Sat 02:32:00 PM 21.1040 -87.0493 105° East  Level FlightAware Approximate
Sat 02:33:00 PM 21.0456 -86.9149 123° Southeast  Level FlightAware Approximate
Sat 02:34:00 PM 21.0365 -86.8771 123° Southeast  Level Estimated
Sat 02:35:00 PM 21.0365 -86.8771 123° Southeast  Level Estimated
Sat 02:36:00 PM 21.0365 -86.8771 123° Southeast  Level Estimated
Sat 02:37:00 PM 21.0365 -86.8771 123° Southeast  Level Estimated
Sat 02:38:00 PM 21.0365 -86.8771 123° Southeast  Level Estimated
Sat 02:39:00 PM 21.0365 -86.8771 123° Southeast  Level Estimated
Sat 02:40:00 PM 21.0365 -86.8771 123° Southeast  Level Estimated
Sat 02:41:00 PM 21.0365 -86.8771 123° Southeast  Level Estimated
Sat 02:42:00 PM 21.0365 -86.8771 123° Southeast  Level Estimated
Sat 02:43:00 PM 21.0365 -86.8771 123° Southeast  Level Estimated
Sat 02:44:00 PM 21.0365 -86.8771 123° Southeast  Level Estimated
Sat 02:45:00 PM 21.0365 -86.8771 123° Southeast  Level Estimated
Sat 02:46:00 PM 21.0365 -86.8771 123° Southeast  Level Estimated
Sat 02:47:00 PM 21.0365 -86.8771 123° Southeast  Level Estimated

Login

Don't have an account? Register now (free) for customized features, flight alerts, and more!